Time;durP1;ratioP1;P1;durP2;ratioP2;P2;SDS_P1;SDS_P2;PMS_P1;PMS_P2;Temp;Humidity;BMP_temperature;BMP_pressure;BME280_temperature;BME280_humidity;BME280_pressure;Samples;Min_cycle;Max_cycle;Signal;HPM_P1;HPM_P2
2022/02/24 00:00:05;;;;;;;7.57;2.95;;;8.80;99.90;;;;;;5026406;28;20662;-67
2022/02/24 00:02:33;;;;;;;14.35;2.75;;;8.80;99.90;;;;;;5021574;28;20602;-68
2022/02/24 00:05:00;;;;;;;8.77;3.65;;;8.80;99.90;;;;;;5028832;28;20196;-69
2022/02/24 00:07:27;;;;;;;11.50;3.83;;;8.70;99.90;;;;;;5027170;28;20284;-69
2022/02/24 00:09:54;;;;;;;15.10;3.80;;;8.80;99.90;;;;;;5021664;28;20207;-68
2022/02/24 00:12:21;;;;;;;8.02;2.90;;;8.80;99.90;;;;;;5020469;28;20220;-68
2022/02/24 00:14:49;;;;;;;4.18;2.15;;;8.90;99.90;;;;;;5018410;28;20296;-70
2022/02/24 00:17:17;;;;;;;5.93;2.70;;;9.00;99.90;;;;;;5028104;28;20299;-68
2022/02/24 00:19:44;;;;;;;10.20;2.85;;;9.00;99.90;;;;;;5015743;28;20287;-70
2022/02/24 00:22:11;;;;;;;5.30;2.30;;;9.00;99.90;;;;;;5026513;28;20216;-69
2022/02/24 00:24:38;;;;;;;4.00;3.10;;;9.00;99.90;;;;;;5011223;28;20296;-71
2022/02/24 00:27:05;;;;;;;5.38;2.53;;;8.90;99.90;;;;;;5021933;28;20295;-69
2022/02/24 00:29:34;;;;;;;6.07;3.20;;;8.80;99.90;;;;;;5008677;28;20211;-68
2022/02/24 00:32:01;;;;;;;7.53;3.63;;;8.80;99.90;;;;;;5016684;28;20242;-70
2022/02/24 00:34:29;;;;;;;9.00;2.85;;;8.70;99.90;;;;;;5021271;28;20242;-68
2022/02/24 00:36:57;;;;;;;14.40;3.42;;;8.70;99.90;;;;;;5022946;28;20244;-68
2022/02/24 00:39:25;;;;;;;6.82;3.60;;;8.60;99.90;;;;;;5023070;28;20280;-68
2022/02/24 00:41:52;;;;;;;7.50;4.22;;;8.60;99.90;;;;;;5015343;28;20218;-69
2022/02/24 00:44:19;;;;;;;9.48;3.35;;;8.60;99.90;;;;;;5012549;28;20671;-68
2022/02/24 00:46:46;;;;;;;11.30;3.55;;;8.50;99.90;;;;;;5021028;28;20201;-69
2022/02/24 00:49:14;;;;;;;8.57;3.30;;;8.50;99.90;;;;;;5008706;28;20208;-69
2022/02/24 00:51:42;;;;;;;9.55;2.75;;;8.60;99.90;;;;;;5020137;28;20201;-68
2022/02/24 00:54:12;;;;;;;11.27;3.97;;;8.60;99.90;;;;;;5017129;28;20260;-70
2022/02/24 00:56:39;;;;;;;7.15;2.90;;;8.60;99.90;;;;;;5012084;28;20660;-68
2022/02/24 00:59:06;;;;;;;5.75;2.67;;;8.50;99.90;;;;;;5005416;28;20629;-68
2022/02/24 01:01:33;;;;;;;7.57;3.40;;;8.60;99.90;;;;;;5012172;28;20199;-68
2022/02/24 01:04:00;;;;;;;5.20;3.30;;;8.50;99.90;;;;;;5012748;28;20205;-68
2022/02/24 01:06:27;;;;;;;7.65;3.70;;;8.60;99.90;;;;;;5012789;28;20193;-69
2022/02/24 01:08:56;;;;;;;7.82;4.10;;;8.60;99.90;;;;;;5013918;28;20594;-69
2022/02/24 01:11:23;;;;;;;9.70;3.65;;;8.60;99.90;;;;;;5015582;28;20721;-69
2022/02/24 01:13:50;;;;;;;7.88;3.30;;;8.60;99.90;;;;;;5016146;28;20260;-67
2022/02/24 01:16:17;;;;;;;6.20;3.50;;;8.70;99.90;;;;;;5012342;28;20668;-67
2022/02/24 01:18:44;;;;;;;6.88;3.10;;;8.70;99.90;;;;;;5032931;28;20597;-67
2022/02/24 01:21:11;;;;;;;6.88;3.30;;;8.70;99.90;;;;;;5024328;28;20233;-71
2022/02/24 01:23:38;;;;;;;6.35;2.80;;;8.70;99.90;;;;;;5029548;28;20224;-69
2022/02/24 01:26:07;;;;;;;10.55;3.58;;;8.60;99.90;;;;;;5019392;28;20197;-68
2022/02/24 01:28:34;;;;;;;6.63;3.72;;;8.70;99.90;;;;;;5028343;28;20705;-68
2022/02/24 01:31:01;;;;;;;10.48;4.10;;;8.70;99.90;;;;;;5026430;28;20287;-70
2022/02/24 01:33:28;;;;;;;7.13;4.15;;;8.60;99.90;;;;;;5030317;28;20602;-70
2022/02/24 01:35:55;;;;;;;6.13;3.50;;;8.70;99.90;;;;;;5027644;28;20248;-67
2022/02/24 01:38:22;;;;;;;7.07;3.60;;;8.70;99.90;;;;;;5029282;28;20315;-69
2022/02/24 01:40:49;;;;;;;7.35;4.03;;;8.70;99.90;;;;;;5029479;28;20212;-68
2022/02/24 01:43:17;;;;;;;6.65;3.75;;;8.70;99.90;;;;;;5028178;28;20591;-68
2022/02/24 01:45:44;;;;;;;10.27;3.72;;;8.80;99.90;;;;;;5025553;28;20231;-68
2022/02/24 01:48:11;;;;;;;4.28;3.08;;;8.80;99.90;;;;;;5034465;28;20203;-69
2022/02/24 01:50:39;;;;;;;9.95;2.80;;;8.80;99.90;;;;;;5022996;28;20208;-68
2022/02/24 01:53:06;;;;;;;7.90;3.17;;;8.70;99.90;;;;;;5031558;28;20226;-67
2022/02/24 01:55:33;;;;;;;15.73;3.88;;;8.80;99.90;;;;;;5023386;28;20239;-68
2022/02/24 01:58:03;;;;;;;11.52;2.97;;;8.80;99.90;;;;;;5014798;28;20299;-69
2022/02/24 02:00:32;;;;;;;3.58;3.20;;;8.90;99.90;;;;;;5019506;28;20205;-68
2022/02/24 02:02:58;;;;;;;5.55;3.08;;;8.80;99.90;;;;;;5026519;28;20224;-68
2022/02/24 02:05:28;;;;;;;12.02;3.72;;;8.80;99.90;;;;;;5029271;28;20295;-67
2022/02/24 02:07:57;;;;;;;6.28;3.53;;;8.80;99.90;;;;;;5033449;28;20654;-68
2022/02/24 02:10:25;;;;;;;6.13;3.13;;;8.90;99.90;;;;;;5025864;28;20204;-68
2022/02/24 02:12:53;;;;;;;11.10;3.30;;;8.80;99.90;;;;;;5032248;28;20277;-68
2022/02/24 02:15:21;;;;;;;6.95;3.85;;;8.70;99.90;;;;;;5024729;28;20193;-68
2022/02/24 02:17:49;;;;;;;7.47;3.25;;;8.90;99.90;;;;;;5030747;28;20655;-68
2022/02/24 02:20:19;;;;;;;11.13;3.85;;;8.80;99.90;;;;;;5020206;28;20258;-67
2022/02/24 02:22:50;;;;;;;10.82;3.65;;;8.80;99.90;;;;;;5029094;28;20598;-68
2022/02/24 02:25:19;;;;;;;12.27;3.83;;;8.80;99.90;;;;;;5021705;28;20201;-69
2022/02/24 02:27:48;;;;;;;7.00;2.85;;;8.90;99.90;;;;;;5027403;28;20200;-68
2022/02/24 02:30:16;;;;;;;6.05;2.90;;;8.80;99.90;;;;;;5031799;28;20192;-68
2022/02/24 02:32:43;;;;;;;8.35;2.83;;;8.80;99.90;;;;;;5025589;28;20718;-69
2022/02/24 02:35:10;;;;;;;9.85;5.43;;;8.80;99.90;;;;;;5029173;28;20200;-67
2022/02/24 02:37:37;;;;;;;5.85;3.35;;;8.80;99.90;;;;;;5031308;28;20260;-68
2022/02/24 02:40:07;;;;;;;5.45;2.72;;;8.80;99.90;;;;;;5020056;28;20208;-70
2022/02/24 02:42:34;;;;;;;8.18;2.85;;;8.80;99.90;;;;;;5025529;28;20311;-68
2022/02/24 02:45:03;;;;;;;11.98;2.90;;;8.80;99.90;;;;;;5034025;28;20218;-69
2022/02/24 02:47:30;;;;;;;8.68;3.25;;;8.80;99.90;;;;;;5015770;28;20244;-69
2022/02/24 02:49:57;;;;;;;6.82;3.60;;;8.70;99.90;;;;;;5030256;28;20215;-68
2022/02/24 02:52:23;;;;;;;7.18;2.95;;;8.80;99.90;;;;;;5028612;28;20683;-69
2022/02/24 02:54:56;;;;;;;8.25;3.22;;;8.80;99.90;;;;;;5016456;28;20218;-68
2022/02/24 02:57:24;;;;;;;11.60;4.85;;;8.80;99.90;;;;;;5024452;28;20307;-69
2022/02/24 02:59:51;;;;;;;12.35;3.78;;;8.80;99.90;;;;;;5021878;28;20274;-67
2022/02/24 03:02:18;;;;;;;6.40;3.50;;;8.80;99.90;;;;;;5023479;28;21045;-69
2022/02/24 03:04:49;;;;;;;9.00;3.47;;;8.80;99.90;;;;;;5025941;28;20209;-69
2022/02/24 03:07:17;;;;;;;7.95;3.47;;;8.80;99.90;;;;;;5019916;28;20693;-68
2022/02/24 03:09:44;;;;;;;7.20;3.30;;;8.80;99.90;;;;;;5029924;28;20571;-67
2022/02/24 03:12:11;;;;;;;6.60;3.85;;;8.80;99.90;;;;;;5017924;28;20231;-67
2022/02/24 03:14:40;;;;;;;4.55;3.22;;;8.70;99.90;;;;;;5027463;28;20204;-67
2022/02/24 03:17:07;;;;;;;9.98;3.40;;;8.80;99.90;;;;;;5018891;28;20615;-68
2022/02/24 03:19:35;;;;;;;6.88;4.10;;;8.70;99.90;;;;;;5018579;28;20647;-68
2022/02/24 03:22:02;;;;;;;7.15;3.38;;;8.70;99.90;;;;;;5022095;28;20728;-69
2022/02/24 03:24:29;;;;;;;5.85;2.80;;;8.70;99.90;;;;;;5026367;28;20803;-69
2022/02/24 03:26:56;;;;;;;5.65;3.13;;;8.60;99.90;;;;;;5026530;28;20286;-69
2022/02/24 03:29:23;;;;;;;8.07;2.97;;;8.60;99.90;;;;;;5020628;28;20291;-69
2022/02/24 03:31:51;;;;;;;11.07;3.92;;;8.60;99.90;;;;;;5023237;28;20208;-69
2022/02/24 03:34:18;;;;;;;4.47;2.90;;;8.70;99.90;;;;;;5021422;28;20284;-67
2022/02/24 03:36:45;;;;;;;7.70;3.42;;;8.60;99.90;;;;;;5007780;28;20283;-67
2022/02/24 03:39:12;;;;;;;7.60;3.33;;;8.60;99.90;;;;;;5018013;28;20287;-68
2022/02/24 03:41:42;;;;;;;8.73;2.90;;;8.60;99.90;;;;;;5018563;28;20212;-68
2022/02/24 03:44:09;;;;;;;10.98;3.10;;;8.60;99.90;;;;;;5021709;28;20216;-68
2022/02/24 03:46:35;;;;;;;9.20;3.63;;;8.60;99.90;;;;;;5025996;28;20218;-67
2022/02/24 03:49:04;;;;;;;10.77;3.95;;;8.60;99.90;;;;;;5027835;28;20288;-68
2022/02/24 03:51:31;;;;;;;5.68;3.28;;;8.60;99.90;;;;;;5028749;28;20204;-67
2022/02/24 03:53:57;;;;;;;8.43;3.45;;;8.60;99.90;;;;;;5024091;28;20259;-67
2022/02/24 03:56:24;;;;;;;5.25;3.05;;;8.60;99.90;;;;;;5027253;28;20287;-68
2022/02/24 03:58:51;;;;;;;12.63;4.10;;;8.60;99.90;;;;;;5021835;28;20229;-67
2022/02/24 04:01:18;;;;;;;8.55;3.65;;;8.60;99.90;;;;;;5025230;28;20660;-66
2022/02/24 04:03:45;;;;;;;7.82;3.30;;;8.60;99.90;;;;;;5028914;28;20327;-66
2022/02/24 04:06:14;;;;;;;7.60;3.20;;;8.50;99.90;;;;;;5023650;28;20331;-69
2022/02/24 04:08:41;;;;;;;4.72;3.50;;;8.60;99.90;;;;;;5013667;28;20730;-68
2022/02/24 04:11:08;;;;;;;6.13;4.57;;;8.60;99.90;;;;;;5027632;28;20239;-68
2022/02/24 04:13:35;;;;;;;7.88;3.53;;;8.60;99.90;;;;;;5026314;28;20260;-69
2022/02/24 04:16:02;;;;;;;12.68;4.47;;;8.60;99.90;;;;;;5029074;28;20283;-68
2022/02/24 04:18:29;;;;;;;8.85;4.03;;;8.70;99.90;;;;;;5023698;28;20286;-69
2022/02/24 04:20:57;;;;;;;14.40;5.35;;;8.70;99.90;;;;;;5025996;28;20211;-68
2022/02/24 04:23:25;;;;;;;9.60;4.43;;;8.70;99.90;;;;;;5029298;28;20298;-67
2022/02/24 04:25:52;;;;;;;7.78;4.35;;;8.80;99.90;;;;;;5025973;28;20292;-68
2022/02/24 04:28:19;;;;;;;6.10;4.13;;;8.60;99.90;;;;;;5031228;28;20191;-68
2022/02/24 04:30:46;;;;;;;11.40;4.85;;;8.60;99.90;;;;;;5018900;28;20205;-68
2022/02/24 04:33:12;;;;;;;7.43;4.55;;;8.70;99.90;;;;;;5028079;28;20363;-67
2022/02/24 04:35:40;;;;;;;7.55;4.28;;;8.60;99.90;;;;;;5021174;28;20213;-69
2022/02/24 04:38:07;;;;;;;8.55;3.83;;;8.60;99.90;;;;;;5024279;28;20312;-68
2022/02/24 04:40:35;;;;;;;15.80;4.95;;;8.50;99.90;;;;;;5026312;28;20208;-69
2022/02/24 04:43:02;;;;;;;13.48;5.55;;;8.50;99.90;;;;;;5025816;28;20221;-69
2022/02/24 04:45:29;;;;;;;12.43;5.45;;;8.50;99.90;;;;;;5028273;28;20196;-68
2022/02/24 04:47:56;;;;;;;8.10;4.95;;;8.50;99.90;;;;;;5025753;28;20200;-67
2022/02/24 04:50:23;;;;;;;10.88;5.53;;;8.50;99.90;;;;;;5023631;28;20192;-68
2022/02/24 04:52:50;;;;;;;8.57;5.35;;;8.40;99.90;;;;;;5022886;28;20553;-68
2022/02/24 04:55:17;;;;;;;18.30;6.63;;;8.50;99.90;;;;;;5024407;28;20279;-68
2022/02/24 04:57:45;;;;;;;12.45;5.72;;;8.50;99.90;;;;;;5021253;28;20244;-68
2022/02/24 05:00:13;;;;;;;8.07;5.78;;;8.50;99.90;;;;;;5025630;28;20204;-68
2022/02/24 05:02:40;;;;;;;8.90;6.40;;;8.50;99.90;;;;;;5023546;28;20303;-69
2022/02/24 05:05:07;;;;;;;12.68;5.20;;;8.60;99.90;;;;;;5024108;28;20737;-69
2022/02/24 05:07:34;;;;;;;8.38;5.38;;;8.70;99.90;;;;;;5024842;28;20598;-67
2022/02/24 05:10:03;;;;;;;9.32;5.25;;;8.70;99.90;;;;;;5031075;28;20206;-70
2022/02/24 05:12:30;;;;;;;15.52;6.55;;;8.60;99.90;;;;;;5023053;28;20275;-68
2022/02/24 05:14:58;;;;;;;8.57;5.63;;;8.60;99.90;;;;;;5028526;28;20356;-67
2022/02/24 05:17:25;;;;;;;7.47;5.35;;;8.60;99.90;;;;;;5028525;28;20189;-67
2022/02/24 05:19:52;;;;;;;10.07;6.47;;;8.60;99.90;;;;;;5040371;28;20384;-67
2022/02/24 05:22:19;;;;;;;11.57;5.10;;;8.60;99.90;;;;;;5031615;28;20390;-67
2022/02/24 05:24:46;;;;;;;9.98;6.57;;;8.60;99.90;;;;;;5038814;28;20396;-70
2022/02/24 05:27:13;;;;;;;10.55;4.95;;;8.60;99.90;;;;;;5031349;28;20262;-68
2022/02/24 05:29:40;;;;;;;6.80;4.93;;;8.60;99.90;;;;;;5040150;28;20188;-68
2022/02/24 05:32:08;;;;;;;5.97;5.13;;;8.60;99.90;;;;;;5034666;28;20226;-67
2022/02/24 05:34:35;;;;;;;9.75;6.65;;;8.70;99.90;;;;;;5036088;28;20231;-68
2022/02/24 05:37:02;;;;;;;9.32;5.55;;;8.60;99.90;;;;;;5030059;28;20263;-68
2022/02/24 05:39:29;;;;;;;9.07;5.07;;;8.60;99.90;;;;;;5036890;28;20278;-69
2022/02/24 05:41:59;;;;;;;8.45;5.53;;;8.60;99.90;;;;;;5038743;28;20325;-67
2022/02/24 05:44:25;;;;;;;10.20;5.60;;;8.60;99.90;;;;;;5029302;28;20201;-67
2022/02/24 05:46:52;;;;;;;9.48;5.93;;;8.60;99.90;;;;;;5038618;28;20212;-68
2022/02/24 05:49:21;;;;;;;11.88;5.90;;;8.60;99.90;;;;;;5038081;28;20188;-68
2022/02/24 05:51:48;;;;;;;12.27;6.90;;;8.60;99.90;;;;;;5034722;28;20220;-69
2022/02/24 05:54:15;;;;;;;7.63;5.18;;;8.60;99.90;;;;;;5039474;28;20558;-68
2022/02/24 05:56:42;;;;;;;12.15;5.30;;;8.60;99.90;;;;;;5037526;28;20247;-68
2022/02/24 05:59:09;;;;;;;9.48;5.10;;;8.50;99.90;;;;;;5047735;28;20216;-68
2022/02/24 06:01:38;;;;;;;13.90;5.82;;;8.60;99.90;;;;;;5044141;28;20222;-69
2022/02/24 06:04:05;;;;;;;10.65;6.05;;;8.60;99.90;;;;;;5030895;28;20200;-69
2022/02/24 06:06:34;;;;;;;12.32;6.80;;;8.60;99.90;;;;;;5036815;28;20208;-68
2022/02/24 06:09:01;;;;;;;17.38;6.57;;;8.60;99.90;;;;;;5037781;28;20199;-70
2022/02/24 06:11:27;;;;;;;10.63;5.85;;;8.60;99.90;;;;;;5026763;28;20177;-67
2022/02/24 06:13:54;;;;;;;11.63;6.70;;;8.60;99.90;;;;;;5019222;28;20232;-68
2022/02/24 06:16:21;;;;;;;14.05;6.32;;;8.60;99.90;;;;;;5029290;28;20264;-67
2022/02/24 06:18:48;;;;;;;16.08;6.15;;;8.60;99.90;;;;;;5033097;28;20225;-68
2022/02/24 06:21:19;;;;;;;11.93;5.85;;;8.60;99.90;;;;;;5034604;28;20264;-69
2022/02/24 06:23:47;;;;;;;9.85;5.50;;;8.60;99.90;;;;;;5037701;28;20335;-69
2022/02/24 06:26:14;;;;;;;15.75;6.63;;;8.60;99.90;;;;;;5034070;28;20216;-69
2022/02/24 06:28:41;;;;;;;11.85;6.40;;;8.60;99.90;;;;;;5039760;28;20205;-68
2022/02/24 06:31:09;;;;;;;10.18;7.28;;;8.60;99.90;;;;;;5043391;28;20185;-68
2022/02/24 06:33:36;;;;;;;11.82;5.72;;;8.60;99.90;;;;;;5038043;28;20244;-70
2022/02/24 06:36:04;;;;;;;11.60;5.10;;;8.60;99.90;;;;;;5028338;28;20243;-67
2022/02/24 06:38:32;;;;;;;9.82;4.57;;;8.60;99.90;;;;;;5026138;28;20494;-68
2022/02/24 06:41:01;;;;;;;17.00;6.05;;;8.50;99.90;;;;;;5038104;28;20212;-67
2022/02/24 06:43:28;;;;;;;13.38;6.38;;;8.50;99.90;;;;;;5028349;28;20221;-71
2022/02/24 06:45:54;;;;;;;13.18;6.30;;;8.50;99.90;;;;;;5045042;28;20188;-68
2022/02/24 06:48:24;;;;;;;16.90;5.43;;;8.60;99.90;;;;;;5026771;28;20212;-69
2022/02/24 06:50:51;;;;;;;12.85;5.32;;;8.60;99.90;;;;;;5043801;28;20301;-67
2022/02/24 06:53:18;;;;;;;12.60;6.25;;;8.60;99.90;;;;;;5037459;28;20340;-67
2022/02/24 06:55:45;;;;;;;17.85;6.10;;;8.50;99.90;;;;;;5041362;28;20487;-68
2022/02/24 06:58:13;;;;;;;16.45;5.70;;;8.60;99.90;;;;;;5039618;28;20226;-67
2022/02/24 07:00:40;;;;;;;12.00;5.32;;;8.70;99.90;;;;;;5036420;28;20227;-68
2022/02/24 07:03:07;;;;;;;18.92;5.32;;;8.70;99.90;;;;;;5023928;28;20230;-66
2022/02/24 07:05:34;;;;;;;12.63;5.35;;;8.70;99.90;;;;;;5039932;28;20272;-69
2022/02/24 07:08:02;;;;;;;7.28;4.78;;;8.60;99.90;;;;;;5042287;28;20192;-68
2022/02/24 07:10:29;;;;;;;9.90;5.30;;;8.80;99.90;;;;;;5037247;28;20196;-68
2022/02/24 07:12:56;;;;;;;10.30;5.38;;;8.70;99.90;;;;;;5039782;28;20283;-69
2022/02/24 07:15:24;;;;;;;10.68;5.00;;;8.60;99.90;;;;;;5034904;28;20242;-68
2022/02/24 07:17:51;;;;;;;20.80;6.95;;;8.60;99.90;;;;;;5030737;28;20192;-67
2022/02/24 07:20:19;;;;;;;12.85;4.72;;;8.70;99.90;;;;;;5029073;28;20432;-67
2022/02/24 07:22:47;;;;;;;9.00;4.85;;;8.70;99.90;;;;;;5030791;28;20240;-66
2022/02/24 07:25:14;;;;;;;9.80;4.10;;;8.70;99.90;;;;;;5027255;28;20401;-68
2022/02/24 07:27:42;;;;;;;9.13;6.10;;;8.60;99.90;;;;;;5027783;28;20228;-68
2022/02/24 07:30:10;;;;;;;14.25;5.47;;;8.70;99.90;;;;;;5024779;28;20193;-69
2022/02/24 07:32:39;;;;;;;9.18;4.25;;;8.70;99.90;;;;;;5038920;28;20282;-72
2022/02/24 07:35:07;;;;;;;12.77;4.70;;;8.80;99.90;;;;;;5037296;28;20424;-72
2022/02/24 07:37:34;;;;;;;16.30;4.57;;;8.80;99.90;;;;;;5041023;28;20254;-70
2022/02/24 07:40:01;;;;;;;5.70;3.72;;;8.90;99.90;;;;;;5033355;28;20318;-68
2022/02/24 07:42:29;;;;;;;9.70;3.95;;;8.80;99.90;;;;;;5038035;28;20239;-68
2022/02/24 07:44:57;;;;;;;12.05;3.65;;;8.80;99.90;;;;;;5039847;28;20196;-68
2022/02/24 07:47:24;;;;;;;7.70;4.10;;;8.80;99.90;;;;;;5038574;28;20188;-70
2022/02/24 07:49:53;;;;;;;8.70;4.10;;;8.90;99.90;;;;;;5034294;28;20188;-68
2022/02/24 07:52:22;;;;;;;6.05;4.30;;;8.80;99.90;;;;;;5038385;28;20212;-72
2022/02/24 07:54:49;;;;;;;10.63;4.25;;;8.90;99.90;;;;;;5030688;28;20204;-68
2022/02/24 07:57:16;;;;;;;13.25;4.82;;;9.00;99.90;;;;;;5036439;28;20188;-68
2022/02/24 07:59:43;;;;;;;9.50;3.20;;;9.00;99.90;;;;;;5038187;28;20224;-70
2022/02/24 08:02:10;;;;;;;11.43;4.88;;;9.00;99.90;;;;;;5038090;28;20274;-70
2022/02/24 08:04:37;;;;;;;9.40;4.28;;;9.10;99.90;;;;;;5035953;28;20244;-70
2022/02/24 08:07:06;;;;;;;8.63;3.88;;;9.20;99.90;;;;;;5025807;28;20385;-70
2022/02/24 08:09:33;;;;;;;12.23;3.72;;;9.30;99.90;;;;;;5041040;28;20224;-69
2022/02/24 08:14:41;;;;;;;11.13;3.78;;;9.30;99.90;;;;;;5026220;28;20424;-70
2022/02/24 08:17:08;;;;;;;10.45;4.88;;;9.20;99.90;;;;;;5038808;28;20266;-69
2022/02/24 08:19:35;;;;;;;8.15;3.15;;;9.20;99.90;;;;;;5030389;28;20356;-69
2022/02/24 08:22:05;;;;;;;4.97;2.95;;;9.30;99.90;;;;;;5043915;28;20219;-68
2022/02/24 08:24:32;;;;;;;12.10;3.80;;;9.40;99.90;;;;;;5035386;28;20196;-69
2022/02/24 08:26:59;;;;;;;9.43;3.47;;;9.50;99.90;;;;;;5032381;28;20199;-68
2022/02/24 08:29:26;;;;;;;9.13;3.45;;;9.50;99.90;;;;;;5036377;28;20188;-68
2022/02/24 08:31:53;;;;;;;7.90;3.65;;;9.50;99.90;;;;;;5027136;28;20185;-69
2022/02/24 08:34:21;;;;;;;10.48;3.05;;;9.60;99.90;;;;;;5039961;28;20184;-70
2022/02/24 08:36:48;;;;;;;8.48;3.60;;;9.50;99.90;;;;;;5036415;28;20192;-70
2022/02/24 08:39:17;;;;;;;8.60;3.17;;;9.60;99.90;;;;;;5037831;28;20220;-70
2022/02/24 08:41:49;;;;;;;8.45;3.97;;;9.60;99.90;;;;;;5033266;28;20193;-68
2022/02/24 08:44:18;;;;;;;8.02;4.15;;;9.60;99.90;;;;;;5043525;28;20192;-71
2022/02/24 08:46:46;;;;;;;7.60;3.83;;;9.80;99.90;;;;;;5016524;28;20338;-72
2022/02/24 08:49:14;;;;;;;9.73;3.55;;;9.90;99.90;;;;;;5028320;28;20310;-69
2022/02/24 08:51:41;;;;;;;15.30;4.60;;;9.90;99.90;;;;;;5027951;28;20213;-69
2022/02/24 08:54:08;;;;;;;9.05;4.68;;;10.00;99.90;;;;;;5021923;28;20184;-73
2022/02/24 08:56:37;;;;;;;9.98;3.40;;;10.20;99.90;;;;;;5027812;28;20612;-70
2022/02/24 08:59:04;;;;;;;10.10;4.15;;;10.20;99.90;;;;;;5025026;28;20239;-72
2022/02/24 09:01:31;;;;;;;11.43;3.97;;;10.30;99.90;;;;;;5028417;28;20259;-70
2022/02/24 09:03:58;;;;;;;13.18;4.18;;;10.20;99.90;;;;;;5031397;28;20603;-71
2022/02/24 09:06:25;;;;;;;13.57;4.20;;;10.10;99.90;;;;;;5032307;28;20217;-68
2022/02/24 09:08:52;;;;;;;11.82;5.10;;;10.30;99.90;;;;;;5031337;28;20192;-71
2022/02/24 09:11:21;;;;;;;13.10;3.60;;;10.50;99.90;;;;;;5022083;28;20273;-70
2022/02/24 09:13:50;;;;;;;14.50;5.35;;;10.70;99.90;;;;;;5030770;28;20223;-70
2022/02/24 09:16:17;;;;;;;12.00;4.82;;;10.80;99.90;;;;;;5025272;28;20422;-68
2022/02/24 09:18:44;;;;;;;15.25;5.03;;;11.10;99.90;;;;;;5023829;28;20205;-70
2022/02/24 09:21:11;;;;;;;14.00;3.53;;;11.60;99.90;;;;;;5020169;28;20188;-70
2022/02/24 09:23:39;;;;;;;11.40;4.63;;;11.60;99.00;;;;;;5024010;28;20254;-71
2022/02/24 09:26:06;;;;;;;8.75;4.75;;;11.40;99.00;;;;;;5023733;28;20244;-69
2022/02/24 09:28:33;;;;;;;10.18;4.03;;;11.20;99.80;;;;;;5029642;28;20206;-70
2022/02/24 09:31:01;;;;;;;19.70;4.47;;;11.00;99.90;;;;;;5026426;28;20193;-70
2022/02/24 09:33:28;;;;;;;8.60;3.42;;;11.10;99.90;;;;;;5027722;28;20213;-71
2022/02/24 09:35:55;;;;;;;6.25;3.40;;;11.00;99.90;;;;;;5022018;28;20194;-70
2022/02/24 09:38:24;;;;;;;9.07;5.22;;;11.30;99.90;;;;;;5030962;28;20396;-69
2022/02/24 09:40:57;;;;;;;12.02;4.72;;;11.30;99.60;;;;;;5038063;28;20213;-68
2022/02/24 09:43:36;;;;;;;7.32;3.90;;;12.20;97.70;;;;;;5011480;28;20267;-70
2022/02/24 09:46:07;;;;;;;10.82;4.05;;;12.20;97.00;;;;;;5032038;28;20227;-68
2022/02/24 09:48:41;;;;;;;9.35;4.57;;;12.10;96.80;;;;;;5022590;28;20243;-72
2022/02/24 09:51:10;;;;;;;7.00;3.55;;;12.20;96.80;;;;;;5023638;28;20401;-70
2022/02/24 09:53:38;;;;;;;7.82;4.05;;;12.30;96.80;;;;;;5042467;28;20214;-71
2022/02/24 09:56:07;;;;;;;10.77;4.45;;;12.20;96.50;;;;;;5043582;28;20199;-67
2022/02/24 09:58:34;;;;;;;10.73;4.30;;;11.80;97.20;;;;;;5039254;28;20189;-71
2022/02/24 10:01:02;;;;;;;7.10;3.97;;;11.80;97.80;;;;;;5035953;28;20192;-69
2022/02/24 10:03:32;;;;;;;7.05;2.90;;;11.90;98.00;;;;;;5043639;28;20231;-68
2022/02/24 10:06:00;;;;;;;8.07;3.58;;;12.00;97.40;;;;;;5048616;28;20380;-69
2022/02/24 10:08:29;;;;;;;8.65;4.13;;;12.50;97.00;;;;;;5048227;28;20206;-71
2022/02/24 10:10:57;;;;;;;6.45;3.63;;;12.60;96.10;;;;;;5047716;28;20241;-69
2022/02/24 10:13:25;;;;;;;11.23;4.57;;;12.60;95.90;;;;;;5048229;28;20227;-70
2022/02/24 10:15:57;;;;;;;9.02;5.72;;;12.90;95.70;;;;;;5048710;28;20180;-70
2022/02/24 10:18:25;;;;;;;11.30;4.40;;;12.50;95.10;;;;;;5048402;28;20193;-70
2022/02/24 10:20:59;;;;;;;7.90;2.80;;;11.80;96.70;;;;;;5047884;28;20233;-72
2022/02/24 10:23:33;;;;;;;9.93;3.75;;;11.80;97.40;;;;;;5048244;28;20218;-68
2022/02/24 10:26:03;;;;;;;6.10;3.45;;;11.90;98.10;;;;;;5047086;28;20197;-69
2022/02/24 10:28:36;;;;;;;9.02;3.25;;;11.90;97.90;;;;;;5048443;28;20187;-70
2022/02/24 10:31:11;;;;;;;10.18;3.67;;;12.20;97.20;;;;;;5041421;28;20242;-71
2022/02/24 10:33:39;;;;;;;6.35;3.05;;;12.00;97.40;;;;;;5044774;28;20477;-68
2022/02/24 10:36:16;;;;;;;9.65;3.47;;;11.80;97.60;;;;;;5048243;28;20234;-69
2022/02/24 10:38:46;;;;;;;11.55;3.85;;;11.90;97.60;;;;;;5046925;28;20270;-69
2022/02/24 10:41:14;;;;;;;10.40;3.85;;;11.70;97.90;;;;;;5046567;28;20223;-69
2022/02/24 10:43:42;;;;;;;14.57;5.05;;;11.80;98.10;;;;;;5048057;28;20254;-72
2022/02/24 10:46:13;;;;;;;7.95;3.97;;;12.00;97.60;;;;;;5030147;28;20183;-68
2022/02/24 10:48:52;;;;;;;6.78;3.58;;;11.70;97.60;;;;;;5027358;28;20197;-72
2022/02/24 10:51:25;;;;;;;10.57;3.58;;;11.60;98.40;;;;;;5038752;28;20198;-71
2022/02/24 10:54:03;;;;;;;7.60;3.45;;;11.80;98.30;;;;;;5038914;28;20322;-69
2022/02/24 10:56:31;;;;;;;7.85;3.72;;;12.00;98.00;;;;;;5025718;28;20192;-69
2022/02/24 10:58:58;;;;;;;11.77;3.90;;;11.60;98.20;;;;;;5045086;28;21428;-69
2022/02/24 11:01:26;;;;;;;12.75;3.95;;;11.40;99.00;;;;;;5035772;28;20202;-72
2022/02/24 11:03:54;;;;;;;8.88;3.40;;;11.40;98.80;;;;;;5041747;28;20228;-69
2022/02/24 11:06:24;;;;;;;5.40;3.65;;;11.20;99.10;;;;;;5033446;28;20185;-67
2022/02/24 11:08:53;;;;;;;5.35;2.97;;;11.20;99.70;;;;;;5039508;28;20204;-69
2022/02/24 11:11:22;;;;;;;15.00;3.10;;;11.10;99.70;;;;;;5033141;28;20196;-70
2022/02/24 11:13:50;;;;;;;7.22;3.25;;;11.10;99.90;;;;;;5032238;28;20213;-69
2022/02/24 11:16:17;;;;;;;8.77;2.45;;;11.40;99.90;;;;;;5020728;28;20277;-69
2022/02/24 11:18:45;;;;;;;8.57;5.40;;;11.20;99.90;;;;;;5034292;28;20232;-70
2022/02/24 11:21:13;;;;;;;7.43;2.50;;;11.20;99.90;;;;;;5019176;28;20218;-68
2022/02/24 11:23:42;;;;;;;4.50;2.13;;;10.90;99.90;;;;;;5035061;28;20409;-70
2022/02/24 11:26:53;;;;;;;3.47;2.63;;;10.70;99.90;;;;;;5030282;28;20296;-69
2022/02/24 11:29:27;;;;;;;6.72;2.25;;;10.60;99.90;;;;;;5032954;28;20228;-69
2022/02/24 11:32:02;;;;;;;5.22;2.00;;;10.60;99.90;;;;;;5040988;28;20283;-71
2022/02/24 11:35:10;;;;;;;5.53;2.22;;;10.60;99.90;;;;;;5028915;28;20208;-70
2022/02/24 11:37:39;;;;;;;4.30;2.08;;;10.90;99.90;;;;;;5022716;28;20196;-69
2022/02/24 11:40:10;;;;;;;5.13;2.75;;;11.20;99.90;;;;;;5016487;28;20256;-72
2022/02/24 11:42:38;;;;;;;5.43;2.58;;;11.40;99.90;;;;;;5021653;28;20216;-71
2022/02/24 11:45:31;;;;;;;8.57;2.83;;;11.60;99.90;;;;;;5011887;28;20270;-70
2022/02/24 11:48:01;;;;;;;4.78;2.20;;;11.40;99.40;;;;;;5007487;28;20263;-70
2022/02/24 11:50:35;;;;;;;11.63;2.75;;;11.50;99.80;;;;;;5006724;28;20232;-69
2022/02/24 11:53:03;;;;;;;8.80;2.97;;;11.70;99.10;;;;;;5040784;28;20407;-68
2022/02/24 11:55:49;;;;;;;6.45;2.05;;;11.70;98.70;;;;;;5046680;28;20194;-68
2022/02/24 11:58:46;;;;;;;3.45;2.40;;;11.80;98.80;;;;;;5046367;28;20294;-69
2022/02/24 12:01:25;;;;;;;6.05;2.40;;;12.00;97.70;;;;;;5037875;28;20224;-69
2022/02/24 12:03:58;;;;;;;5.68;2.92;;;11.90;97.60;;;;;;5044871;28;20282;-69
2022/02/24 12:06:44;;;;;;;8.15;3.00;;;12.10;97.40;;;;;;5046444;28;20179;-70
2022/02/24 12:09:16;;;;;;;5.68;2.42;;;11.80;97.70;;;;;;5046890;28;20302;-69
2022/02/24 12:11:46;;;;;;;3.42;2.47;;;11.60;97.90;;;;;;5045563;28;20212;-71
2022/02/24 12:14:48;;;;;;;6.20;2.55;;;11.40;98.10;;;;;;5046521;28;20183;-69
2022/02/24 12:17:18;;;;;;;5.88;2.58;;;11.10;99.40;;;;;;5046313;28;20255;-70
2022/02/24 12:19:48;;;;;;;11.73;3.42;;;11.10;99.90;;;;;;5045574;28;20241;-69
2022/02/24 12:22:30;;;;;;;5.50;2.50;;;10.80;99.90;;;;;;5045656;28;20447;-70
2022/02/24 12:25:10;;;;;;;6.18;2.80;;;10.90;99.90;;;;;;5046315;28;20175;-68
2022/02/24 12:27:41;;;;;;;5.05;2.88;;;11.30;99.90;;;;;;5046257;28;20273;-72
2022/02/24 12:30:26;;;;;;;4.93;2.38;;;11.40;99.50;;;;;;5042582;28;20205;-72
2022/02/24 12:33:00;;;;;;;9.57;1.90;;;11.30;98.90;;;;;;5037709;28;20214;-71
2022/02/24 12:35:30;;;;;;;4.90;2.40;;;11.10;99.00;;;;;;5043692;28;20189;-71
2022/02/24 12:37:57;;;;;;;3.75;2.13;;;11.10;99.20;;;;;;5046144;28;20264;-68
2022/02/24 12:40:32;;;;;;;7.43;2.25;;;11.30;99.30;;;;;;5044753;28;20260;-70
2022/02/24 12:43:01;;;;;;;4.80;2.25;;;11.40;99.10;;;;;;5045721;28;20267;-70
2022/02/24 12:45:30;;;;;;;4.95;2.05;;;11.30;99.30;;;;;;5036996;28;20219;-68
2022/02/24 12:48:03;;;;;;;4.15;1.98;;;11.40;99.30;;;;;;5030907;28;20237;-69
2022/02/24 12:50:36;;;;;;;6.53;2.72;;;11.60;98.50;;;;;;5037444;28;20191;-70
2022/02/24 12:53:20;;;;;;;3.88;2.70;;;11.60;97.90;;;;;;5035137;28;20209;-71
2022/02/24 12:55:49;;;;;;;4.80;1.60;;;11.40;98.00;;;;;;5025949;28;20465;-68
2022/02/24 12:58:21;;;;;;;4.78;1.80;;;11.40;97.60;;;;;;5018034;28;20204;-70
2022/02/24 13:00:56;;;;;;;8.25;2.22;;;11.40;97.40;;;;;;5018842;28;20297;-70